sensor_id;sensor_type;location;lat;lon;timestamp;P1;durP1;ratioP1;P2;durP2;ratioP2
10823;SDS011;39116;59.332;18.034;2022-08-07T00:00:30;1.88;;;0.70;;
10823;SDS011;39116;59.332;18.034;2022-08-07T00:02:57;0.52;;;0.52;;
10823;SDS011;39116;59.332;18.034;2022-08-07T00:05:24;0.82;;;0.52;;
10823;SDS011;39116;59.332;18.034;2022-08-07T00:07:51;2.17;;;0.75;;
10823;SDS011;39116;59.332;18.034;2022-08-07T00:10:19;3.28;;;0.80;;
10823;SDS011;39116;59.332;18.034;2022-08-07T00:12:47;0.93;;;0.65;;
10823;SDS011;39116;59.332;18.034;2022-08-07T00:15:14;1.33;;;0.60;;
10823;SDS011;39116;59.332;18.034;2022-08-07T00:17:40;1.70;;;0.60;;
10823;SDS011;39116;59.332;18.034;2022-08-07T00:20:09;1.45;;;0.70;;
10823;SDS011;39116;59.332;18.034;2022-08-07T00:22:35;0.50;;;0.50;;
10823;SDS011;39116;59.332;18.034;2022-08-07T00:25:03;2.30;;;0.90;;
10823;SDS011;39116;59.332;18.034;2022-08-07T00:27:29;1.23;;;0.50;;
10823;SDS011;39116;59.332;18.034;2022-08-07T00:29:56;0.50;;;0.50;;
10823;SDS011;39116;59.332;18.034;2022-08-07T00:32:22;0.73;;;0.50;;
10823;SDS011;39116;59.332;18.034;2022-08-07T00:34:49;1.00;;;0.60;;
10823;SDS011;39116;59.332;18.034;2022-08-07T00:37:17;1.67;;;0.70;;
10823;SDS011;39116;59.332;18.034;2022-08-07T00:39:43;2.33;;;0.68;;
10823;SDS011;39116;59.332;18.034;2022-08-07T00:42:10;2.35;;;0.60;;
10823;SDS011;39116;59.332;18.034;2022-08-07T00:44:36;1.95;;;0.70;;
10823;SDS011;39116;59.332;18.034;2022-08-07T00:47:04;0.98;;;0.88;;
10823;SDS011;39116;59.332;18.034;2022-08-07T00:49:32;0.75;;;0.60;;
10823;SDS011;39116;59.332;18.034;2022-08-07T00:51:59;1.33;;;0.70;;
10823;SDS011;39116;59.332;18.034;2022-08-07T00:54:26;1.52;;;0.60;;
10823;SDS011;39116;59.332;18.034;2022-08-07T00:56:53;2.95;;;0.77;;
10823;SDS011;39116;59.332;18.034;2022-08-07T00:59:19;1.30;;;0.70;;
10823;SDS011;39116;59.332;18.034;2022-08-07T01:01:46;1.35;;;0.73;;
10823;SDS011;39116;59.332;18.034;2022-08-07T01:04:15;2.25;;;0.70;;
10823;SDS011;39116;59.332;18.034;2022-08-07T01:06:41;1.02;;;0.68;;
10823;SDS011;39116;59.332;18.034;2022-08-07T01:09:08;2.33;;;0.90;;
10823;SDS011;39116;59.332;18.034;2022-08-07T01:11:36;1.08;;;0.63;;
10823;SDS011;39116;59.332;18.034;2022-08-07T01:14:03;0.73;;;0.70;;
10823;SDS011;39116;59.332;18.034;2022-08-07T01:16:29;1.75;;;0.70;;
10823;SDS011;39116;59.332;18.034;2022-08-07T01:18:56;1.13;;;0.70;;
10823;SDS011;39116;59.332;18.034;2022-08-07T01:21:24;1.10;;;0.70;;
10823;SDS011;39116;59.332;18.034;2022-08-07T01:23:51;1.55;;;0.68;;
10823;SDS011;39116;59.332;18.034;2022-08-07T01:26:19;1.83;;;0.70;;
10823;SDS011;39116;59.332;18.034;2022-08-07T01:28:48;1.25;;;0.73;;
10823;SDS011;39116;59.332;18.034;2022-08-07T01:31:15;3.17;;;0.80;;
10823;SDS011;39116;59.332;18.034;2022-08-07T01:33:42;2.28;;;0.82;;
10823;SDS011;39116;59.332;18.034;2022-08-07T01:36:08;1.38;;;0.70;;
10823;SDS011;39116;59.332;18.034;2022-08-07T01:41:06;1.92;;;0.77;;
10823;SDS011;39116;59.332;18.034;2022-08-07T01:43:33;3.38;;;0.80;;
10823;SDS011;39116;59.332;18.034;2022-08-07T01:46:00;1.48;;;0.65;;
10823;SDS011;39116;59.332;18.034;2022-08-07T01:48:27;1.60;;;0.88;;
10823;SDS011;39116;59.332;18.034;2022-08-07T01:50:59;2.60;;;0.98;;
10823;SDS011;39116;59.332;18.034;2022-08-07T01:53:26;1.98;;;0.90;;
10823;SDS011;39116;59.332;18.034;2022-08-07T01:55:54;3.60;;;0.90;;
10823;SDS011;39116;59.332;18.034;2022-08-07T01:58:22;3.10;;;0.88;;
10823;SDS011;39116;59.332;18.034;2022-08-07T02:00:52;1.55;;;0.98;;
10823;SDS011;39116;59.332;18.034;2022-08-07T02:03:20;1.42;;;0.47;;
10823;SDS011;39116;59.332;18.034;2022-08-07T02:05:49;1.77;;;0.80;;
10823;SDS011;39116;59.332;18.034;2022-08-07T02:08:16;2.58;;;1.05;;
10823;SDS011;39116;59.332;18.034;2022-08-07T02:10:45;1.50;;;0.98;;
10823;SDS011;39116;59.332;18.034;2022-08-07T02:13:13;2.00;;;0.70;;
10823;SDS011;39116;59.332;18.034;2022-08-07T02:15:41;3.15;;;1.00;;
10823;SDS011;39116;59.332;18.034;2022-08-07T02:18:09;2.03;;;0.75;;
10823;SDS011;39116;59.332;18.034;2022-08-07T02:20:36;2.25;;;0.90;;
10823;SDS011;39116;59.332;18.034;2022-08-07T02:23:03;3.83;;;1.00;;
10823;SDS011;39116;59.332;18.034;2022-08-07T02:25:32;3.78;;;1.10;;
10823;SDS011;39116;59.332;18.034;2022-08-07T02:27:59;1.92;;;0.80;;
10823;SDS011;39116;59.332;18.034;2022-08-07T02:30:26;2.35;;;0.80;;
10823;SDS011;39116;59.332;18.034;2022-08-07T02:32:55;2.17;;;1.00;;
10823;SDS011;39116;59.332;18.034;2022-08-07T02:35:22;2.00;;;0.90;;
10823;SDS011;39116;59.332;18.034;2022-08-07T02:37:49;2.40;;;0.90;;
10823;SDS011;39116;59.332;18.034;2022-08-07T02:40:16;1.42;;;0.80;;
10823;SDS011;39116;59.332;18.034;2022-08-07T02:42:43;3.42;;;0.98;;
10823;SDS011;39116;59.332;18.034;2022-08-07T02:45:11;4.35;;;1.02;;
10823;SDS011;39116;59.332;18.034;2022-08-07T02:47:37;3.25;;;1.15;;
10823;SDS011;39116;59.332;18.034;2022-08-07T02:50:05;1.40;;;0.90;;
10823;SDS011;39116;59.332;18.034;2022-08-07T02:52:33;3.15;;;0.95;;
10823;SDS011;39116;59.332;18.034;2022-08-07T02:55:03;2.15;;;0.70;;
10823;SDS011;39116;59.332;18.034;2022-08-07T02:57:30;2.92;;;1.25;;
10823;SDS011;39116;59.332;18.034;2022-08-07T02:59:59;3.70;;;1.23;;
10823;SDS011;39116;59.332;18.034;2022-08-07T03:02:26;1.85;;;0.90;;
10823;SDS011;39116;59.332;18.034;2022-08-07T03:04:53;2.45;;;0.93;;
10823;SDS011;39116;59.332;18.034;2022-08-07T03:07:21;3.35;;;1.20;;
10823;SDS011;39116;59.332;18.034;2022-08-07T03:09:48;4.13;;;1.20;;
10823;SDS011;39116;59.332;18.034;2022-08-07T03:12:14;3.85;;;1.20;;
10823;SDS011;39116;59.332;18.034;2022-08-07T03:14:41;1.80;;;0.90;;
10823;SDS011;39116;59.332;18.034;2022-08-07T03:17:08;2.50;;;1.25;;
10823;SDS011;39116;59.332;18.034;2022-08-07T03:19:34;3.83;;;1.20;;
10823;SDS011;39116;59.332;18.034;2022-08-07T03:22:01;4.43;;;1.00;;
10823;SDS011;39116;59.332;18.034;2022-08-07T03:24:29;7.53;;;1.45;;
10823;SDS011;39116;59.332;18.034;2022-08-07T03:26:56;4.13;;;1.20;;
10823;SDS011;39116;59.332;18.034;2022-08-07T03:29:25;1.42;;;0.93;;
10823;SDS011;39116;59.332;18.034;2022-08-07T03:31:53;2.25;;;1.10;;
10823;SDS011;39116;59.332;18.034;2022-08-07T03:34:20;1.83;;;0.95;;
10823;SDS011;39116;59.332;18.034;2022-08-07T03:36:47;2.67;;;1.00;;
10823;SDS011;39116;59.332;18.034;2022-08-07T03:39:13;2.70;;;1.20;;
10823;SDS011;39116;59.332;18.034;2022-08-07T03:41:41;2.88;;;1.02;;
10823;SDS011;39116;59.332;18.034;2022-08-07T03:44:08;2.65;;;1.00;;
10823;SDS011;39116;59.332;18.034;2022-08-07T03:46:35;5.28;;;1.27;;
10823;SDS011;39116;59.332;18.034;2022-08-07T03:49:02;3.00;;;1.00;;
10823;SDS011;39116;59.332;18.034;2022-08-07T03:51:28;4.97;;;1.10;;
10823;SDS011;39116;59.332;18.034;2022-08-07T03:53:55;2.20;;;1.00;;
10823;SDS011;39116;59.332;18.034;2022-08-07T03:56:22;3.83;;;1.10;;
10823;SDS011;39116;59.332;18.034;2022-08-07T03:58:51;2.80;;;1.23;;
10823;SDS011;39116;59.332;18.034;2022-08-07T04:01:18;4.10;;;1.40;;
10823;SDS011;39116;59.332;18.034;2022-08-07T04:03:45;6.28;;;1.33;;
10823;SDS011;39116;59.332;18.034;2022-08-07T04:06:12;5.07;;;1.30;;
10823;SDS011;39116;59.332;18.034;2022-08-07T04:08:38;4.03;;;1.33;;
10823;SDS011;39116;59.332;18.034;2022-08-07T04:11:05;4.38;;;1.30;;
10823;SDS011;39116;59.332;18.034;2022-08-07T04:13:32;4.47;;;1.23;;
10823;SDS011;39116;59.332;18.034;2022-08-07T04:16:00;3.95;;;1.20;;
10823;SDS011;39116;59.332;18.034;2022-08-07T04:18:27;5.65;;;1.45;;
10823;SDS011;39116;59.332;18.034;2022-08-07T04:20:53;6.10;;;1.48;;
10823;SDS011;39116;59.332;18.034;2022-08-07T04:23:20;3.95;;;1.42;;
10823;SDS011;39116;59.332;18.034;2022-08-07T04:25:47;3.60;;;1.45;;
10823;SDS011;39116;59.332;18.034;2022-08-07T04:28:13;5.63;;;1.30;;
10823;SDS011;39116;59.332;18.034;2022-08-07T04:30:40;6.90;;;1.58;;
10823;SDS011;39116;59.332;18.034;2022-08-07T04:33:08;2.78;;;1.58;;
10823;SDS011;39116;59.332;18.034;2022-08-07T04:35:35;5.22;;;2.00;;
10823;SDS011;39116;59.332;18.034;2022-08-07T04:38:05;3.08;;;1.48;;
10823;SDS011;39116;59.332;18.034;2022-08-07T04:40:31;2.83;;;1.27;;
10823;SDS011;39116;59.332;18.034;2022-08-07T04:42:58;5.80;;;1.40;;
10823;SDS011;39116;59.332;18.034;2022-08-07T04:45:24;4.68;;;1.25;;
10823;SDS011;39116;59.332;18.034;2022-08-07T04:47:54;6.28;;;1.33;;
10823;SDS011;39116;59.332;18.034;2022-08-07T04:50:26;3.17;;;1.33;;
10823;SDS011;39116;59.332;18.034;2022-08-07T04:52:56;4.32;;;1.58;;
10823;SDS011;39116;59.332;18.034;2022-08-07T04:55:28;4.72;;;1.50;;
10823;SDS011;39116;59.332;18.034;2022-08-07T04:57:57;3.55;;;1.40;;
10823;SDS011;39116;59.332;18.034;2022-08-07T05:00:27;5.72;;;1.30;;
10823;SDS011;39116;59.332;18.034;2022-08-07T05:03:00;2.70;;;1.50;;
10823;SDS011;39116;59.332;18.034;2022-08-07T05:05:31;6.28;;;1.73;;
10823;SDS011;39116;59.332;18.034;2022-08-07T05:08:00;7.45;;;1.83;;
10823;SDS011;39116;59.332;18.034;2022-08-07T05:10:29;5.50;;;1.80;;
10823;SDS011;39116;59.332;18.034;2022-08-07T05:12:58;6.30;;;1.98;;
10823;SDS011;39116;59.332;18.034;2022-08-07T05:15:25;6.05;;;1.55;;
10823;SDS011;39116;59.332;18.034;2022-08-07T05:17:55;5.03;;;1.60;;
10823;SDS011;39116;59.332;18.034;2022-08-07T05:20:23;9.20;;;2.08;;
10823;SDS011;39116;59.332;18.034;2022-08-07T05:22:53;7.68;;;1.95;;
10823;SDS011;39116;59.332;18.034;2022-08-07T05:25:21;7.22;;;1.90;;
10823;SDS011;39116;59.332;18.034;2022-08-07T05:27:49;5.57;;;2.00;;
10823;SDS011;39116;59.332;18.034;2022-08-07T05:30:16;6.32;;;1.50;;
10823;SDS011;39116;59.332;18.034;2022-08-07T05:32:42;5.72;;;1.95;;
10823;SDS011;39116;59.332;18.034;2022-08-07T05:35:11;2.85;;;1.77;;
10823;SDS011;39116;59.332;18.034;2022-08-07T05:37:37;4.95;;;1.80;;
10823;SDS011;39116;59.332;18.034;2022-08-07T05:40:07;6.30;;;1.95;;
10823;SDS011;39116;59.332;18.034;2022-08-07T05:42:34;6.85;;;2.00;;
10823;SDS011;39116;59.332;18.034;2022-08-07T05:45:01;6.82;;;2.00;;
10823;SDS011;39116;59.332;18.034;2022-08-07T05:47:27;8.55;;;1.70;;
10823;SDS011;39116;59.332;18.034;2022-08-07T05:49:54;7.47;;;1.90;;
10823;SDS011;39116;59.332;18.034;2022-08-07T05:52:21;6.93;;;1.95;;
10823;SDS011;39116;59.332;18.034;2022-08-07T05:54:48;7.43;;;1.80;;
10823;SDS011;39116;59.332;18.034;2022-08-07T05:57:15;7.03;;;2.08;;
10823;SDS011;39116;59.332;18.034;2022-08-07T05:59:42;6.50;;;2.13;;
10823;SDS011;39116;59.332;18.034;2022-08-07T06:02:12;8.05;;;2.33;;
10823;SDS011;39116;59.332;18.034;2022-08-07T06:04:40;5.60;;;2.00;;
10823;SDS011;39116;59.332;18.034;2022-08-07T06:07:07;6.43;;;2.10;;
10823;SDS011;39116;59.332;18.034;2022-08-07T06:09:34;4.78;;;1.65;;
10823;SDS011;39116;59.332;18.034;2022-08-07T06:12:01;5.35;;;1.98;;
10823;SDS011;39116;59.332;18.034;2022-08-07T06:14:28;5.70;;;2.25;;
10823;SDS011;39116;59.332;18.034;2022-08-07T06:16:55;7.82;;;2.03;;
10823;SDS011;39116;59.332;18.034;2022-08-07T06:19:21;3.95;;;1.75;;
10823;SDS011;39116;59.332;18.034;2022-08-07T06:21:49;8.40;;;2.03;;
10823;SDS011;39116;59.332;18.034;2022-08-07T06:24:16;5.55;;;2.00;;
10823;SDS011;39116;59.332;18.034;2022-08-07T06:26:42;4.95;;;1.95;;
10823;SDS011;39116;59.332;18.034;2022-08-07T06:29:09;4.53;;;2.05;;
10823;SDS011;39116;59.332;18.034;2022-08-07T06:31:36;5.85;;;2.00;;
10823;SDS011;39116;59.332;18.034;2022-08-07T06:34:03;5.97;;;2.30;;
10823;SDS011;39116;59.332;18.034;2022-08-07T06:36:29;5.22;;;2.05;;
10823;SDS011;39116;59.332;18.034;2022-08-07T06:38:56;6.78;;;1.95;;
10823;SDS011;39116;59.332;18.034;2022-08-07T06:41:23;6.00;;;2.20;;
10823;SDS011;39116;59.332;18.034;2022-08-07T06:43:50;4.95;;;2.03;;
10823;SDS011;39116;59.332;18.034;2022-08-07T06:46:17;4.95;;;1.88;;
10823;SDS011;39116;59.332;18.034;2022-08-07T06:48:45;7.50;;;2.00;;
10823;SDS011;39116;59.332;18.034;2022-08-07T06:51:13;5.95;;;2.08;;
10823;SDS011;39116;59.332;18.034;2022-08-07T06:53:40;8.07;;;2.17;;
10823;SDS011;39116;59.332;18.034;2022-08-07T06:56:08;10.68;;;2.33;;
10823;SDS011;39116;59.332;18.034;2022-08-07T06:58:35;4.25;;;1.63;;
10823;SDS011;39116;59.332;18.034;2022-08-07T07:01:02;6.97;;;2.03;;
10823;SDS011;39116;59.332;18.034;2022-08-07T07:03:31;9.65;;;2.58;;
10823;SDS011;39116;59.332;18.034;2022-08-07T07:05:59;4.50;;;1.83;;
10823;SDS011;39116;59.332;18.034;2022-08-07T07:08:26;9.40;;;2.53;;
10823;SDS011;39116;59.332;18.034;2022-08-07T07:10:52;6.93;;;2.10;;
10823;SDS011;39116;59.332;18.034;2022-08-07T07:13:21;6.47;;;1.88;;
10823;SDS011;39116;59.332;18.034;2022-08-07T07:15:49;7.00;;;1.92;;
10823;SDS011;39116;59.332;18.034;2022-08-07T07:18:20;4.85;;;2.03;;
10823;SDS011;39116;59.332;18.034;2022-08-07T07:20:50;7.47;;;2.22;;
10823;SDS011;39116;59.332;18.034;2022-08-07T07:23:18;4.53;;;1.85;;
10823;SDS011;39116;59.332;18.034;2022-08-07T07:25:46;9.65;;;1.98;;
10823;SDS011;39116;59.332;18.034;2022-08-07T07:28:14;6.72;;;1.80;;
10823;SDS011;39116;59.332;18.034;2022-08-07T07:30:46;5.38;;;2.28;;
10823;SDS011;39116;59.332;18.034;2022-08-07T07:33:13;4.97;;;1.90;;
10823;SDS011;39116;59.332;18.034;2022-08-07T07:35:41;5.18;;;1.80;;
10823;SDS011;39116;59.332;18.034;2022-08-07T07:38:08;5.10;;;2.08;;
10823;SDS011;39116;59.332;18.034;2022-08-07T07:40:37;5.05;;;2.17;;
10823;SDS011;39116;59.332;18.034;2022-08-07T07:43:05;4.57;;;1.80;;
10823;SDS011;39116;59.332;18.034;2022-08-07T07:45:32;4.10;;;1.73;;
10823;SDS011;39116;59.332;18.034;2022-08-07T07:47:58;4.68;;;1.55;;
10823;SDS011;39116;59.332;18.034;2022-08-07T07:50:28;7.80;;;2.00;;
10823;SDS011;39116;59.332;18.034;2022-08-07T07:52:54;8.57;;;2.25;;
10823;SDS011;39116;59.332;18.034;2022-08-07T07:55:21;7.95;;;2.20;;
10823;SDS011;39116;59.332;18.034;2022-08-07T07:57:50;6.13;;;1.85;;
10823;SDS011;39116;59.332;18.034;2022-08-07T08:00:18;8.07;;;2.10;;
10823;SDS011;39116;59.332;18.034;2022-08-07T08:02:44;4.40;;;1.73;;
10823;SDS011;39116;59.332;18.034;2022-08-07T08:05:12;4.03;;;1.98;;
10823;SDS011;39116;59.332;18.034;2022-08-07T08:07:39;6.22;;;2.10;;
10823;SDS011;39116;59.332;18.034;2022-08-07T08:10:06;6.95;;;2.00;;
10823;SDS011;39116;59.332;18.034;2022-08-07T08:12:33;8.52;;;2.05;;
10823;SDS011;39116;59.332;18.034;2022-08-07T08:15:02;3.55;;;1.85;;
10823;SDS011;39116;59.332;18.034;2022-08-07T08:17:28;5.90;;;2.08;;
10823;SDS011;39116;59.332;18.034;2022-08-07T08:19:58;4.78;;;1.83;;
10823;SDS011;39116;59.332;18.034;2022-08-07T08:22:25;3.58;;;2.00;;
10823;SDS011;39116;59.332;18.034;2022-08-07T08:25:10;8.73;;;2.22;;
10823;SDS011;39116;59.332;18.034;2022-08-07T08:27:55;5.90;;;1.80;;
10823;SDS011;39116;59.332;18.034;2022-08-07T08:30:23;5.15;;;1.90;;
10823;SDS011;39116;59.332;18.034;2022-08-07T08:32:51;4.47;;;1.75;;
10823;SDS011;39116;59.332;18.034;2022-08-07T08:35:25;6.25;;;1.80;;
10823;SDS011;39116;59.332;18.034;2022-08-07T08:37:54;6.15;;;1.92;;
10823;SDS011;39116;59.332;18.034;2022-08-07T08:40:23;4.53;;;1.70;;
10823;SDS011;39116;59.332;18.034;2022-08-07T08:42:51;3.63;;;1.60;;
10823;SDS011;39116;59.332;18.034;2022-08-07T08:45:20;3.85;;;1.58;;
10823;SDS011;39116;59.332;18.034;2022-08-07T08:47:51;2.83;;;1.52;;
10823;SDS011;39116;59.332;18.034;2022-08-07T08:50:22;2.67;;;1.55;;
10823;SDS011;39116;59.332;18.034;2022-08-07T08:52:50;5.10;;;1.88;;
10823;SDS011;39116;59.332;18.034;2022-08-07T08:55:19;3.75;;;1.80;;
10823;SDS011;39116;59.332;18.034;2022-08-07T08:57:48;3.78;;;1.75;;
10823;SDS011;39116;59.332;18.034;2022-08-07T09:00:17;6.43;;;1.80;;
10823;SDS011;39116;59.332;18.034;2022-08-07T09:02:46;2.83;;;1.33;;
10823;SDS011;39116;59.332;18.034;2022-08-07T09:05:21;5.72;;;1.80;;
10823;SDS011;39116;59.332;18.034;2022-08-07T09:07:50;5.32;;;1.80;;
10823;SDS011;39116;59.332;18.034;2022-08-07T09:10:19;5.97;;;1.85;;
10823;SDS011;39116;59.332;18.034;2022-08-07T09:12:50;4.35;;;2.08;;
10823;SDS011;39116;59.332;18.034;2022-08-07T09:18:12;2.95;;;1.42;;
10823;SDS011;39116;59.332;18.034;2022-08-07T09:20:45;6.03;;;1.63;;
10823;SDS011;39116;59.332;18.034;2022-08-07T09:23:21;3.58;;;1.67;;
10823;SDS011;39116;59.332;18.034;2022-08-07T09:25:54;2.33;;;1.60;;
10823;SDS011;39116;59.332;18.034;2022-08-07T09:28:23;5.32;;;1.48;;
10823;SDS011;39116;59.332;18.034;2022-08-07T09:30:55;3.95;;;1.50;;
10823;SDS011;39116;59.332;18.034;2022-08-07T09:33:31;4.22;;;1.50;;
10823;SDS011;39116;59.332;18.034;2022-08-07T09:36:05;4.00;;;1.13;;
10823;SDS011;39116;59.332;18.034;2022-08-07T09:38:36;3.67;;;1.42;;
10823;SDS011;39116;59.332;18.034;2022-08-07T09:41:06;3.47;;;1.40;;
10823;SDS011;39116;59.332;18.034;2022-08-07T09:43:39;4.88;;;1.60;;
10823;SDS011;39116;59.332;18.034;2022-08-07T09:46:07;2.38;;;1.35;;
10823;SDS011;39116;59.332;18.034;2022-08-07T09:48:40;3.67;;;1.27;;
10823;SDS011;39116;59.332;18.034;2022-08-07T09:51:13;2.88;;;1.40;;
10823;SDS011;39116;59.332;18.034;2022-08-07T09:53:41;2.92;;;1.45;;
10823;SDS011;39116;59.332;18.034;2022-08-07T09:58:56;2.97;;;1.40;;
10823;SDS011;39116;59.332;18.034;2022-08-07T10:01:30;3.88;;;1.60;;
10823;SDS011;39116;59.332;18.034;2022-08-07T10:04:05;3.53;;;1.70;;
10823;SDS011;39116;59.332;18.034;2022-08-07T10:06:48;4.55;;;1.63;;
10823;SDS011;39116;59.332;18.034;2022-08-07T10:09:18;3.05;;;1.35;;
10823;SDS011;39116;59.332;18.034;2022-08-07T10:11:50;5.78;;;1.30;;
10823;SDS011;39116;59.332;18.034;2022-08-07T10:14:23;3.60;;;1.25;;
10823;SDS011;39116;59.332;18.034;2022-08-07T10:17:05;5.40;;;1.55;;
10823;SDS011;39116;59.332;18.034;2022-08-07T10:19:39;3.28;;;1.40;;
10823;SDS011;39116;59.332;18.034;2022-08-07T10:22:16;4.85;;;1.40;;
10823;SDS011;39116;59.332;18.034;2022-08-07T10:24:56;3.95;;;1.25;;
10823;SDS011;39116;59.332;18.034;2022-08-07T10:27:31;3.00;;;1.50;;
10823;SDS011;39116;59.332;18.034;2022-08-07T10:30:04;3.05;;;1.42;;
10823;SDS011;39116;59.332;18.034;2022-08-07T10:32:43;3.65;;;1.60;;
10823;SDS011;39116;59.332;18.034;2022-08-07T10:35:14;4.70;;;1.75;;
10823;SDS011;39116;59.332;18.034;2022-08-07T10:37:51;3.60;;;1.75;;
10823;SDS011;39116;59.332;18.034;2022-08-07T10:40:21;4.68;;;1.70;;
10823;SDS011;39116;59.332;18.034;2022-08-07T10:42:55;5.07;;;2.50;;
10823;SDS011;39116;59.332;18.034;2022-08-07T10:45:23;6.68;;;2.20;;
10823;SDS011;39116;59.332;18.034;2022-08-07T10:47:54;5.55;;;2.08;;
10823;SDS011;39116;59.332;18.034;2022-08-07T10:50:25;5.13;;;2.20;;
10823;SDS011;39116;59.332;18.034;2022-08-07T10:53:00;6.53;;;1.98;;
10823;SDS011;39116;59.332;18.034;2022-08-07T10:55:28;4.72;;;1.70;;
10823;SDS011;39116;59.332;18.034;2022-08-07T10:57:59;5.90;;;2.13;;
10823;SDS011;39116;59.332;18.034;2022-08-07T11:00:29;4.07;;;2.22;;
10823;SDS011;39116;59.332;18.034;2022-08-07T11:02:57;5.35;;;1.80;;
10823;SDS011;39116;59.332;18.034;2022-08-07T11:05:27;6.70;;;2.20;;
10823;SDS011;39116;59.332;18.034;2022-08-07T11:07:57;6.38;;;2.05;;
10823;SDS011;39116;59.332;18.034;2022-08-07T11:10:29;7.97;;;2.10;;
10823;SDS011;39116;59.332;18.034;2022-08-07T11:12:59;5.90;;;1.90;;
10823;SDS011;39116;59.332;18.034;2022-08-07T11:15:28;4.18;;;1.80;;
10823;SDS011;39116;59.332;18.034;2022-08-07T11:17:57;5.53;;;1.88;;
10823;SDS011;39116;59.332;18.034;2022-08-07T11:20:25;5.68;;;1.90;;
10823;SDS011;39116;59.332;18.034;2022-08-07T11:22:58;6.10;;;2.10;;
10823;SDS011;39116;59.332;18.034;2022-08-07T11:25:29;7.40;;;2.10;;
10823;SDS011;39116;59.332;18.034;2022-08-07T11:28:00;3.92;;;1.65;;
10823;SDS011;39116;59.332;18.034;2022-08-07T11:30:27;5.72;;;1.60;;
10823;SDS011;39116;59.332;18.034;2022-08-07T11:33:00;3.08;;;1.30;;
10823;SDS011;39116;59.332;18.034;2022-08-07T11:35:28;2.00;;;1.42;;
10823;SDS011;39116;59.332;18.034;2022-08-07T11:37:58;4.85;;;1.65;;
10823;SDS011;39116;59.332;18.034;2022-08-07T11:40:32;4.20;;;1.55;;
10823;SDS011;39116;59.332;18.034;2022-08-07T11:43:03;2.65;;;1.42;;
10823;SDS011;39116;59.332;18.034;2022-08-07T11:45:33;3.63;;;1.58;;
10823;SDS011;39116;59.332;18.034;2022-08-07T11:48:07;3.30;;;1.70;;
10823;SDS011;39116;59.332;18.034;2022-08-07T11:50:42;4.80;;;1.67;;
10823;SDS011;39116;59.332;18.034;2022-08-07T11:53:15;3.22;;;1.98;;
10823;SDS011;39116;59.332;18.034;2022-08-07T11:55:49;4.13;;;1.63;;
10823;SDS011;39116;59.332;18.034;2022-08-07T11:58:18;4.68;;;1.35;;
10823;SDS011;39116;59.332;18.034;2022-08-07T12:00:50;3.08;;;1.50;;
10823;SDS011;39116;59.332;18.034;2022-08-07T12:03:23;4.55;;;1.50;;
10823;SDS011;39116;59.332;18.034;2022-08-07T12:05:57;3.20;;;1.50;;
10823;SDS011;39116;59.332;18.034;2022-08-07T12:08:28;2.17;;;1.50;;
10823;SDS011;39116;59.332;18.034;2022-08-07T12:10:58;4.45;;;1.50;;
10823;SDS011;39116;59.332;18.034;2022-08-07T12:13:26;3.25;;;1.33;;
10823;SDS011;39116;59.332;18.034;2022-08-07T12:16:05;2.78;;;1.45;;
10823;SDS011;39116;59.332;18.034;2022-08-07T12:18:33;3.78;;;1.38;;
10823;SDS011;39116;59.332;18.034;2022-08-07T12:21:06;3.08;;;1.20;;
10823;SDS011;39116;59.332;18.034;2022-08-07T12:23:41;3.03;;;1.45;;
10823;SDS011;39116;59.332;18.034;2022-08-07T12:26:12;3.67;;;1.58;;
10823;SDS011;39116;59.332;18.034;2022-08-07T12:28:40;3.72;;;1.30;;
10823;SDS011;39116;59.332;18.034;2022-08-07T12:31:10;3.75;;;1.45;;
10823;SDS011;39116;59.332;18.034;2022-08-07T12:33:38;2.75;;;1.25;;
10823;SDS011;39116;59.332;18.034;2022-08-07T12:36:06;2.40;;;1.17;;
10823;SDS011;39116;59.332;18.034;2022-08-07T12:38:34;2.85;;;1.45;;
10823;SDS011;39116;59.332;18.034;2022-08-07T12:41:03;3.50;;;1.58;;
10823;SDS011;39116;59.332;18.034;2022-08-07T12:43:31;2.63;;;1.50;;
10823;SDS011;39116;59.332;18.034;2022-08-07T12:46:03;2.03;;;1.20;;
10823;SDS011;39116;59.332;18.034;2022-08-07T12:48:35;3.80;;;1.38;;
10823;SDS011;39116;59.332;18.034;2022-08-07T12:51:07;2.63;;;1.25;;
10823;SDS011;39116;59.332;18.034;2022-08-07T12:53:36;2.47;;;1.30;;
10823;SDS011;39116;59.332;18.034;2022-08-07T12:56:06;3.22;;;1.42;;
10823;SDS011;39116;59.332;18.034;2022-08-07T12:58:36;1.90;;;1.30;;
10823;SDS011;39116;59.332;18.034;2022-08-07T13:01:05;2.65;;;1.20;;
10823;SDS011;39116;59.332;18.034;2022-08-07T13:03:51;3.55;;;1.13;;
10823;SDS011;39116;59.332;18.034;2022-08-07T13:06:25;1.42;;;1.05;;
10823;SDS011;39116;59.332;18.034;2022-08-07T13:08:55;1.45;;;1.00;;
10823;SDS011;39116;59.332;18.034;2022-08-07T13:11:28;3.47;;;1.30;;
10823;SDS011;39116;59.332;18.034;2022-08-07T13:14:04;1.83;;;1.20;;
10823;SDS011;39116;59.332;18.034;2022-08-07T13:16:34;1.45;;;1.00;;
10823;SDS011;39116;59.332;18.034;2022-08-07T13:19:07;1.77;;;1.35;;
10823;SDS011;39116;59.332;18.034;2022-08-07T13:21:37;2.53;;;1.35;;
10823;SDS011;39116;59.332;18.034;2022-08-07T13:24:07;1.45;;;1.20;;
10823;SDS011;39116;59.332;18.034;2022-08-07T13:26:38;2.88;;;1.30;;
10823;SDS011;39116;59.332;18.034;2022-08-07T13:29:08;1.70;;;1.08;;
10823;SDS011;39116;59.332;18.034;2022-08-07T13:31:38;2.95;;;1.30;;
10823;SDS011;39116;59.332;18.034;2022-08-07T13:34:09;2.55;;;1.10;;
10823;SDS011;39116;59.332;18.034;2022-08-07T13:36:39;2.13;;;1.10;;
10823;SDS011;39116;59.332;18.034;2022-08-07T13:39:07;2.53;;;1.48;;
10823;SDS011;39116;59.332;18.034;2022-08-07T13:41:39;2.38;;;1.15;;
10823;SDS011;39116;59.332;18.034;2022-08-07T13:44:09;2.30;;;1.13;;
10823;SDS011;39116;59.332;18.034;2022-08-07T13:46:36;2.95;;;1.20;;
10823;SDS011;39116;59.332;18.034;2022-08-07T13:49:04;2.85;;;1.38;;
10823;SDS011;39116;59.332;18.034;2022-08-07T13:51:31;1.20;;;1.10;;
10823;SDS011;39116;59.332;18.034;2022-08-07T13:54:02;2.00;;;1.20;;
10823;SDS011;39116;59.332;18.034;2022-08-07T13:56:30;1.80;;;1.17;;
10823;SDS011;39116;59.332;18.034;2022-08-07T13:58:57;5.55;;;1.17;;
10823;SDS011;39116;59.332;18.034;2022-08-07T14:01:30;3.75;;;1.30;;
10823;SDS011;39116;59.332;18.034;2022-08-07T14:03:58;2.28;;;1.30;;
10823;SDS011;39116;59.332;18.034;2022-08-07T14:06:30;1.90;;;1.20;;
10823;SDS011;39116;59.332;18.034;2022-08-07T14:08:56;3.30;;;1.20;;
10823;SDS011;39116;59.332;18.034;2022-08-07T14:11:23;2.38;;;1.40;;
10823;SDS011;39116;59.332;18.034;2022-08-07T14:13:52;2.15;;;1.30;;
10823;SDS011;39116;59.332;18.034;2022-08-07T14:16:22;2.95;;;1.70;;
10823;SDS011;39116;59.332;18.034;2022-08-07T14:18:52;3.20;;;1.40;;
10823;SDS011;39116;59.332;18.034;2022-08-07T14:21:21;2.33;;;1.10;;
10823;SDS011;39116;59.332;18.034;2022-08-07T14:23:50;2.85;;;1.25;;
10823;SDS011;39116;59.332;18.034;2022-08-07T14:26:19;4.05;;;1.30;;
10823;SDS011;39116;59.332;18.034;2022-08-07T14:28:47;2.47;;;1.13;;
10823;SDS011;39116;59.332;18.034;2022-08-07T14:31:14;1.92;;;0.98;;
10823;SDS011;39116;59.332;18.034;2022-08-07T14:33:41;1.60;;;1.20;;
10823;SDS011;39116;59.332;18.034;2022-08-07T14:36:10;2.70;;;1.00;;
10823;SDS011;39116;59.332;18.034;2022-08-07T14:38:37;3.28;;;1.20;;
10823;SDS011;39116;59.332;18.034;2022-08-07T14:41:05;2.53;;;1.05;;
10823;SDS011;39116;59.332;18.034;2022-08-07T14:43:33;1.83;;;1.00;;
10823;SDS011;39116;59.332;18.034;2022-08-07T14:45:59;2.28;;;1.20;;
10823;SDS011;39116;59.332;18.034;2022-08-07T14:48:27;2.13;;;1.27;;
10823;SDS011;39116;59.332;18.034;2022-08-07T14:50:55;1.40;;;0.90;;